createdAt,value
2018-12-25T00:00:48.266Z,1023.55
2018-12-25T00:01:48.243Z,1023.65
2018-12-25T00:02:48.222Z,1023.60
2018-12-25T00:03:48.231Z,1023.65
2018-12-25T00:04:48.227Z,1023.62
2018-12-25T00:05:48.219Z,1023.64
2018-12-25T00:06:48.184Z,1023.62
2018-12-25T00:07:48.216Z,1023.62
2018-12-25T00:08:48.169Z,1023.62
2018-12-25T00:09:48.142Z,1023.70
2018-12-25T00:10:48.964Z,1023.75
2018-12-25T00:11:48.167Z,1023.64
2018-12-25T00:12:48.118Z,1023.72
2018-12-25T00:13:48.185Z,1023.73
2018-12-25T00:14:48.095Z,1023.65
2018-12-25T00:15:48.061Z,1023.67
2018-12-25T00:16:48.040Z,1023.68
2018-12-25T00:17:48.040Z,1023.71
2018-12-25T00:18:48.050Z,1023.61
2018-12-25T00:19:48.022Z,1023.66
2018-12-25T00:20:48.121Z,1023.64
2018-12-25T00:21:48.059Z,1023.68
2018-12-25T00:22:48.020Z,1023.67
2018-12-25T00:23:48.048Z,1023.69
2018-12-25T00:24:47.973Z,1023.67
2018-12-25T00:25:47.973Z,1023.64
2018-12-25T00:26:48.057Z,1023.61
2018-12-25T00:27:48.019Z,1023.58
2018-12-25T00:28:47.955Z,1023.59
2018-12-25T00:29:48.010Z,1023.57
2018-12-25T00:30:47.918Z,1023.53
2018-12-25T00:31:47.963Z,1023.57
2018-12-25T00:32:47.893Z,1023.61
2018-12-25T00:33:47.915Z,1023.57
2018-12-25T00:34:47.923Z,1023.49
2018-12-25T00:35:47.863Z,1023.55
2018-12-25T00:36:47.876Z,1023.52
2018-12-25T00:37:47.846Z,1023.50
2018-12-25T00:38:47.842Z,1023.56
2018-12-25T00:39:56.805Z,1023.51
2018-12-25T00:40:47.783Z,1023.57
2018-12-25T00:41:57.122Z,1023.53
2018-12-25T00:42:58.215Z,1023.47
2018-12-25T00:43:47.763Z,1023.52
2018-12-25T00:44:47.753Z,1023.53
2018-12-25T00:45:47.776Z,1023.56
2018-12-25T00:46:47.775Z,1023.55
2018-12-25T00:47:47.827Z,1023.55
2018-12-25T00:48:47.742Z,1023.58
2018-12-25T00:49:58.125Z,1023.59
2018-12-25T00:50:47.734Z,1023.61
2018-12-25T00:51:47.897Z,1023.62
2018-12-25T00:52:47.664Z,1023.55
2018-12-25T00:53:47.659Z,1023.56
2018-12-25T00:54:47.625Z,1023.54
2018-12-25T00:55:47.629Z,1023.57
2018-12-25T00:56:47.615Z,1023.50
2018-12-25T00:57:47.600Z,1023.61
2018-12-25T00:58:47.598Z,1023.56
2018-12-25T00:59:47.576Z,1023.52
2018-12-25T01:00:47.574Z,1023.63
2018-12-25T01:01:47.577Z,1023.62
2018-12-25T01:02:47.594Z,1023.59
2018-12-25T01:03:47.549Z,1023.51
2018-12-25T01:04:47.553Z,1023.56
2018-12-25T01:05:47.516Z,1023.55
2018-12-25T01:06:47.521Z,1023.56
2018-12-25T01:07:47.493Z,1023.52
2018-12-25T01:08:47.499Z,1023.49
2018-12-25T01:09:47.483Z,1023.55
2018-12-25T01:10:47.479Z,1023.54
2018-12-25T01:11:47.499Z,1023.58
2018-12-25T01:12:47.458Z,1023.58
2018-12-25T01:13:47.429Z,1023.60
2018-12-25T01:14:47.435Z,1023.63
2018-12-25T01:15:47.415Z,1023.61
2018-12-25T01:16:47.472Z,1023.67
2018-12-25T01:17:47.402Z,1023.63
2018-12-25T01:18:47.401Z,1023.67
2018-12-25T01:19:47.508Z,1023.64
2018-12-25T01:20:52.074Z,1023.61
2018-12-25T01:21:47.564Z,1023.68
2018-12-25T01:22:47.345Z,1023.66
2018-12-25T01:23:47.368Z,1023.70
2018-12-25T01:24:47.316Z,1023.68
2018-12-25T01:25:47.334Z,1023.65
2018-12-25T01:26:47.343Z,1023.67
2018-12-25T01:27:47.320Z,1023.66
2018-12-25T01:28:47.322Z,1023.68
2018-12-25T01:29:47.331Z,1023.67
2018-12-25T01:30:47.257Z,1023.65
2018-12-25T01:31:47.278Z,1023.68
2018-12-25T01:32:47.509Z,1023.68
2018-12-25T01:33:47.274Z,1023.66
2018-12-25T01:34:47.278Z,1023.70
2018-12-25T01:35:50.650Z,1023.68
2018-12-25T01:36:47.206Z,1023.66
2018-12-25T01:37:47.209Z,1023.66
2018-12-25T01:38:47.217Z,1023.68
2018-12-25T01:39:47.234Z,1023.72
2018-12-25T01:40:47.358Z,1023.71
2018-12-25T01:41:47.164Z,1023.76
2018-12-25T01:42:47.133Z,1023.69
2018-12-25T01:43:47.140Z,1023.65
2018-12-25T01:44:47.138Z,1023.65
2018-12-25T01:45:47.131Z,1023.64
2018-12-25T01:46:47.137Z,1023.63
2018-12-25T01:47:47.099Z,1023.65
2018-12-25T01:48:47.067Z,1023.69
2018-12-25T01:49:47.116Z,1023.69
2018-12-25T01:50:47.085Z,1023.68
2018-12-25T01:51:47.066Z,1023.75
2018-12-25T01:52:47.035Z,1023.71
2018-12-25T01:53:47.033Z,1023.65
2018-12-25T01:54:47.050Z,1023.63
2018-12-25T01:55:47.018Z,1023.73
2018-12-25T01:56:47.012Z,1023.68
2018-12-25T01:57:46.968Z,1023.68
2018-12-25T01:58:46.963Z,1023.64
2018-12-25T01:59:47.006Z,1023.65
2018-12-25T02:00:46.961Z,1023.63
2018-12-25T02:01:46.970Z,1023.60
2018-12-25T02:02:46.938Z,1023.58
2018-12-25T02:03:46.984Z,1023.59
2018-12-25T02:04:46.902Z,1023.60
2018-12-25T02:05:46.915Z,1023.59
2018-12-25T02:06:46.881Z,1023.59
2018-12-25T02:07:46.886Z,1023.53
2018-12-25T02:08:46.875Z,1023.48
2018-12-25T02:09:46.884Z,1023.55
2018-12-25T02:10:55.676Z,1023.54
2018-12-25T02:11:46.819Z,1023.56
2018-12-25T02:12:56.208Z,1023.50
2018-12-25T02:13:46.835Z,1023.54
2018-12-25T02:14:46.776Z,1023.54
2018-12-25T02:15:55.747Z,1023.59
2018-12-25T02:16:46.778Z,1023.58
2018-12-25T02:17:46.766Z,1023.59
2018-12-25T02:18:46.766Z,1023.52
2018-12-25T02:19:57.776Z,1023.63
2018-12-25T02:20:46.769Z,1023.59
2018-12-25T02:21:46.718Z,1023.63
2018-12-25T02:22:46.718Z,1023.61
2018-12-25T02:23:46.685Z,1023.57
2018-12-25T02:24:46.703Z,1023.56
2018-12-25T02:25:46.733Z,1023.57
2018-12-25T02:26:46.679Z,1023.55
2018-12-25T02:27:46.661Z,1023.57
2018-12-25T02:30:04.148Z,1023.60
2018-12-25T02:31:04.060Z,1023.55
2018-12-25T02:32:04.081Z,1023.51
2018-12-25T02:33:04.029Z,1023.40
2018-12-25T02:34:04.040Z,1023.51
2018-12-25T02:35:04.078Z,1023.50
2018-12-25T02:36:04.045Z,1023.39
2018-12-25T02:37:04.049Z,1023.46
2018-12-25T02:38:04.042Z,1023.42
2018-12-25T02:39:04.006Z,1023.39
2018-12-25T02:40:03.975Z,1023.41
2018-12-25T02:41:04.009Z,1023.37
2018-12-25T02:42:03.925Z,1023.33
2018-12-25T02:43:03.934Z,1023.35
2018-12-25T02:44:03.964Z,1023.31
2018-12-25T02:45:03.997Z,1023.33
2018-12-25T02:46:03.936Z,1023.30
2018-12-25T02:47:03.924Z,1023.25
2018-12-25T02:48:03.878Z,1023.21
2018-12-25T02:49:03.875Z,1023.26
2018-12-25T02:50:04.825Z,1023.33
2018-12-25T02:51:03.901Z,1023.32
2018-12-25T02:52:03.878Z,1023.30
2018-12-25T02:53:03.852Z,1023.29
2018-12-25T02:54:03.960Z,1023.28
2018-12-25T02:55:03.896Z,1023.25
2018-12-25T02:56:03.827Z,1023.23
2018-12-25T02:57:03.950Z,1023.20
2018-12-25T02:58:03.758Z,1023.20
2018-12-25T02:59:03.887Z,1023.21
2018-12-25T03:00:03.830Z,1023.18
2018-12-25T03:01:03.852Z,1023.17
2018-12-25T03:02:03.784Z,1023.18
2018-12-25T03:03:03.750Z,1023.17
2018-12-25T03:04:03.794Z,1023.18
2018-12-25T03:05:03.781Z,1023.21
2018-12-25T03:06:03.778Z,1023.18
2018-12-25T03:07:03.822Z,1023.20
2018-12-25T03:08:03.750Z,1023.24
2018-12-25T03:09:03.708Z,1023.25
2018-12-25T03:10:03.691Z,1023.23
2018-12-25T03:11:03.743Z,1023.20
2018-12-25T03:12:03.678Z,1023.16
2018-12-25T03:13:03.629Z,1023.19
2018-12-25T03:14:03.624Z,1023.17
2018-12-25T03:15:03.610Z,1023.19
2018-12-25T03:16:03.635Z,1023.20
2018-12-25T03:17:03.611Z,1023.16
2018-12-25T03:18:03.691Z,1023.24
2018-12-25T03:19:03.540Z,1023.25
2018-12-25T03:20:03.577Z,1023.28
2018-12-25T03:21:03.529Z,1023.29
2018-12-25T03:22:03.580Z,1023.26
2018-12-25T03:23:03.532Z,1023.25
2018-12-25T03:24:03.558Z,1023.22
2018-12-25T03:25:03.558Z,1023.20
2018-12-25T03:26:03.495Z,1023.18
2018-12-25T03:27:03.503Z,1023.14
2018-12-25T03:28:03.521Z,1023.19
2018-12-25T03:29:03.458Z,1023.15
2018-12-25T03:30:03.503Z,1023.15
2018-12-25T03:31:03.461Z,1023.12
2018-12-25T03:32:03.500Z,1023.14
2018-12-25T03:33:03.515Z,1023.20
2018-12-25T03:34:03.462Z,1023.16
2018-12-25T03:35:12.457Z,1023.14
2018-12-25T03:36:03.435Z,1023.17
2018-12-25T03:37:03.496Z,1023.10
2018-12-25T03:38:03.434Z,1023.12
2018-12-25T03:39:03.466Z,1023.13
2018-12-25T03:40:07.896Z,1023.07
2018-12-25T03:41:03.330Z,1023.06
2018-12-25T03:42:03.369Z,1023.02
2018-12-25T03:43:03.358Z,1023.07
2018-12-25T03:44:03.427Z,1023.01
2018-12-25T03:45:03.317Z,1023.09
2018-12-25T03:46:03.313Z,1023.09
2018-12-25T03:47:03.277Z,1023.07
2018-12-25T03:48:03.316Z,1023.08
2018-12-25T03:49:03.287Z,1023.08
2018-12-25T03:50:10.614Z,1023.07
2018-12-25T03:51:04.229Z,1023.02
2018-12-25T03:52:03.348Z,1023.00
2018-12-25T03:53:03.261Z,1023.01
2018-12-25T03:54:03.279Z,1023.03
2018-12-25T03:55:03.210Z,1023.04
2018-12-25T03:56:03.194Z,1022.96
2018-12-25T03:57:03.247Z,1023.02
2018-12-25T03:58:03.151Z,1022.97
2018-12-25T03:59:03.134Z,1022.96
2018-12-25T04:00:03.172Z,1022.95
2018-12-25T04:01:03.100Z,1022.86
2018-12-25T04:02:03.183Z,1022.89
2018-12-25T04:03:03.080Z,1022.89
2018-12-25T04:04:03.133Z,1022.90
2018-12-25T04:05:03.078Z,1022.98
2018-12-25T04:06:03.182Z,1022.87
2018-12-25T04:07:03.076Z,1022.86
2018-12-25T04:08:03.207Z,1022.88
2018-12-25T04:09:03.086Z,1022.85
2018-12-25T04:10:03.036Z,1022.83
2018-12-25T04:11:03.081Z,1022.87
2018-12-25T04:12:03.029Z,1022.83
2018-12-25T04:13:03.024Z,1022.76
2018-12-25T04:14:03.009Z,1022.75
2018-12-25T04:15:03.046Z,1022.74
2018-12-25T04:16:02.995Z,1022.83
2018-12-25T04:17:03.097Z,1022.84
2018-12-25T04:18:02.992Z,1022.80
2018-12-25T04:19:03.052Z,1022.88
2018-12-25T04:20:02.907Z,1022.87
2018-12-25T04:21:02.956Z,1022.92
2018-12-25T04:22:02.926Z,1022.80
2018-12-25T04:23:02.919Z,1022.91
2018-12-25T04:24:02.899Z,1022.88
2018-12-25T04:25:02.881Z,1022.84
2018-12-25T04:26:02.856Z,1022.86
2018-12-25T04:27:02.934Z,1022.84
2018-12-25T04:28:02.937Z,1022.82
2018-12-25T04:29:02.907Z,1022.86
2018-12-25T04:30:02.880Z,1022.83
2018-12-25T04:31:02.831Z,1022.94
2018-12-25T04:32:02.857Z,1022.84
2018-12-25T04:33:02.875Z,1022.79
2018-12-25T04:34:02.781Z,1022.89
2018-12-25T04:35:02.762Z,1022.86
2018-12-25T04:36:02.803Z,1022.93
2018-12-25T04:37:02.769Z,1022.91
2018-12-25T04:38:02.853Z,1022.88
2018-12-25T04:39:02.728Z,1022.90
2018-12-25T04:40:02.738Z,1022.89
2018-12-25T04:41:02.693Z,1022.90
2018-12-25T04:42:02.669Z,1022.85
2018-12-25T04:43:12.488Z,1022.87
2018-12-25T04:44:11.977Z,1022.90
2018-12-25T04:45:12.053Z,1022.94
2018-12-25T04:46:02.615Z,1022.88
2018-12-25T04:47:12.087Z,1022.86
2018-12-25T04:48:12.101Z,1022.82
2018-12-25T04:49:12.615Z,1022.98
2018-12-25T04:50:02.619Z,1022.95
2018-12-25T04:52:19.978Z,1022.91
2018-12-25T04:53:29.355Z,1022.89
2018-12-25T04:54:20.370Z,1022.90
2018-12-25T04:55:19.951Z,1022.97
2018-12-25T04:56:19.956Z,1023.02
2018-12-25T04:57:19.956Z,1022.97
2018-12-25T04:58:19.947Z,1022.90
2018-12-25T04:59:19.899Z,1022.85
2018-12-25T05:00:19.936Z,1022.96
2018-12-25T05:01:19.901Z,1022.93
2018-12-25T05:02:19.893Z,1022.96
2018-12-25T05:03:19.924Z,1022.97
2018-12-25T05:04:19.857Z,1022.93
2018-12-25T05:05:19.860Z,1022.96
2018-12-25T05:06:19.890Z,1022.91
2018-12-25T05:07:19.835Z,1022.91
2018-12-25T05:08:19.839Z,1022.92
2018-12-25T05:09:19.836Z,1022.96
2018-12-25T05:10:19.805Z,1022.93
2018-12-25T05:11:19.815Z,1022.95
2018-12-25T05:12:19.813Z,1022.95
2018-12-25T05:13:19.830Z,1022.94
2018-12-25T05:14:19.770Z,1022.95
2018-12-25T05:15:19.728Z,1022.98
2018-12-25T05:16:19.872Z,1022.96
2018-12-25T05:17:19.743Z,1022.98
2018-12-25T05:18:19.748Z,1023.00
2018-12-25T05:19:19.746Z,1023.00
2018-12-25T05:20:19.797Z,1023.03
2018-12-25T05:21:19.723Z,1023.08
2018-12-25T05:22:19.663Z,1023.10
2018-12-25T05:23:19.659Z,1023.04
2018-12-25T05:24:19.643Z,1023.05
2018-12-25T05:25:19.635Z,1023.06
2018-12-25T05:26:19.661Z,1023.07
2018-12-25T05:27:19.649Z,1023.09
2018-12-25T05:28:19.640Z,1023.14
2018-12-25T05:29:19.617Z,1023.14
2018-12-25T05:30:19.576Z,1023.15
2018-12-25T05:31:19.578Z,1023.19
2018-12-25T05:32:19.565Z,1023.14
2018-12-25T05:33:19.601Z,1023.17
2018-12-25T05:34:19.567Z,1023.16
2018-12-25T05:35:19.547Z,1023.20
2018-12-25T05:36:19.539Z,1023.21
2018-12-25T05:37:19.530Z,1023.23
2018-12-25T05:38:19.513Z,1023.24
2018-12-25T05:39:19.538Z,1023.22
2018-12-25T05:40:19.469Z,1023.20
2018-12-25T05:41:19.463Z,1023.25
2018-12-25T05:42:19.461Z,1023.20
2018-12-25T05:43:19.453Z,1023.26
2018-12-25T05:44:19.532Z,1023.23
2018-12-25T05:45:19.486Z,1023.25
2018-12-25T05:46:19.425Z,1023.22
2018-12-25T05:47:19.419Z,1023.13
2018-12-25T05:48:19.429Z,1023.16
2018-12-25T05:49:19.435Z,1023.20
2018-12-25T05:50:19.449Z,1023.23
2018-12-25T05:51:19.417Z,1023.20
2018-12-25T05:52:19.359Z,1023.19
2018-12-25T05:53:19.356Z,1023.16
2018-12-25T05:54:19.373Z,1023.17
2018-12-25T05:55:19.552Z,1023.18
2018-12-25T05:56:19.371Z,1023.17
2018-12-25T05:57:19.304Z,1023.15
2018-12-25T05:58:19.294Z,1023.16
2018-12-25T05:59:19.342Z,1023.15
2018-12-25T06:00:19.308Z,1023.21
2018-12-25T06:01:19.246Z,1023.19
2018-12-25T06:02:19.287Z,1023.15
2018-12-25T06:03:19.248Z,1023.23
2018-12-25T06:04:19.257Z,1023.22
2018-12-25T06:05:19.237Z,1023.25
2018-12-25T06:06:19.226Z,1023.24
2018-12-25T06:07:19.231Z,1023.18
2018-12-25T06:08:19.215Z,1023.18
2018-12-25T06:09:19.187Z,1023.15
2018-12-25T06:10:19.221Z,1023.18
2018-12-25T06:11:19.163Z,1023.20
2018-12-25T06:12:19.124Z,1023.21
2018-12-25T06:13:19.150Z,1023.22
2018-12-25T06:14:19.123Z,1023.24
2018-12-25T06:15:19.170Z,1023.23
2018-12-25T06:16:19.131Z,1023.17
2018-12-25T06:17:19.090Z,1023.20
2018-12-25T06:18:19.098Z,1023.20
2018-12-25T06:19:19.084Z,1023.21
2018-12-25T06:20:19.105Z,1023.24
2018-12-25T06:21:19.142Z,1023.21
2018-12-25T06:22:19.088Z,1023.27
2018-12-25T06:23:19.059Z,1023.21
2018-12-25T06:24:19.011Z,1023.27
2018-12-25T06:25:18.999Z,1023.26
2018-12-25T06:26:19.073Z,1023.30
2018-12-25T06:27:18.977Z,1023.25
2018-12-25T06:28:19.012Z,1023.22
2018-12-25T06:29:18.962Z,1023.18
2018-12-25T06:30:19.049Z,1023.22
2018-12-25T06:31:18.938Z,1023.15
2018-12-25T06:32:18.944Z,1023.10
2018-12-25T06:33:18.920Z,1023.09
2018-12-25T06:34:18.958Z,1023.12
2018-12-25T06:35:18.925Z,1023.08
2018-12-25T06:36:18.984Z,1023.09
2018-12-25T06:37:18.894Z,1023.04
2018-12-25T06:38:18.883Z,1023.03
2018-12-25T06:39:18.857Z,1023.04
2018-12-25T06:40:18.890Z,1022.98
2018-12-25T06:41:18.837Z,1022.95
2018-12-25T06:42:18.825Z,1022.96
2018-12-25T06:43:18.805Z,1022.95
2018-12-25T06:44:18.916Z,1022.85
2018-12-25T06:45:18.804Z,1022.85
2018-12-25T06:46:18.786Z,1022.82
2018-12-25T06:47:18.769Z,1022.82
2018-12-25T06:48:18.792Z,1022.91
2018-12-25T06:49:18.812Z,1022.91
2018-12-25T06:50:18.767Z,1022.91
2018-12-25T06:51:18.740Z,1022.92
2018-12-25T06:52:18.726Z,1022.91
2018-12-25T06:53:18.740Z,1022.96
2018-12-25T06:54:18.729Z,1022.96
2018-12-25T06:55:18.693Z,1022.99
2018-12-25T06:56:18.699Z,1022.97
2018-12-25T06:57:18.680Z,1022.97
2018-12-25T06:58:18.676Z,1022.95
2018-12-25T06:59:18.640Z,1022.90
2018-12-25T07:00:18.649Z,1022.83
2018-12-25T07:01:18.624Z,1022.71
2018-12-25T07:02:18.636Z,1022.77
2018-12-25T07:03:18.642Z,1022.72
2018-12-25T07:04:18.598Z,1022.67
2018-12-25T07:05:18.615Z,1022.73
2018-12-25T07:06:18.596Z,1022.74
2018-12-25T07:07:18.638Z,1022.70
2018-12-25T07:08:18.564Z,1022.73
2018-12-25T07:09:18.566Z,1022.66
2018-12-25T07:10:18.540Z,1022.60
2018-12-25T07:11:18.556Z,1022.63
2018-12-25T07:12:18.513Z,1022.60
2018-12-25T07:13:18.570Z,1022.60
2018-12-25T07:14:18.553Z,1022.60
2018-12-25T07:15:18.481Z,1022.68
2018-12-25T07:16:18.507Z,1022.60
2018-12-25T07:17:18.496Z,1022.60
2018-12-25T07:18:18.461Z,1022.60
2018-12-25T07:19:18.512Z,1022.61
2018-12-25T07:20:18.498Z,1022.59
2018-12-25T07:21:18.471Z,1022.56
2018-12-25T07:22:18.513Z,1022.52
2018-12-25T07:23:18.456Z,1022.55
2018-12-25T07:24:18.403Z,1022.57
2018-12-25T07:25:18.393Z,1022.56
2018-12-25T07:26:18.391Z,1022.58
2018-12-25T07:27:18.392Z,1022.55
2018-12-25T07:28:18.348Z,1022.51
2018-12-25T07:29:18.366Z,1022.56
2018-12-25T07:30:18.398Z,1022.51
2018-12-25T07:31:18.384Z,1022.51
2018-12-25T07:32:18.332Z,1022.51
2018-12-25T07:33:18.359Z,1022.51
2018-12-25T07:34:18.325Z,1022.51
2018-12-25T07:35:18.783Z,1022.53
2018-12-25T07:36:18.263Z,1022.45
2018-12-25T07:37:18.299Z,1022.48
2018-12-25T07:38:18.293Z,1022.44
2018-12-25T07:39:18.243Z,1022.50
2018-12-25T07:40:18.259Z,1022.50
2018-12-25T07:41:18.226Z,1022.47
2018-12-25T07:42:18.233Z,1022.46
2018-12-25T07:43:18.198Z,1022.48
2018-12-25T07:44:18.183Z,1022.44
2018-12-25T07:45:18.246Z,1022.37
2018-12-25T07:46:18.165Z,1022.41
2018-12-25T07:47:18.173Z,1022.36
2018-12-25T07:48:18.174Z,1022.33
2018-12-25T07:49:18.182Z,1022.29
2018-12-25T07:50:18.150Z,1022.30
2018-12-25T07:51:20.884Z,1022.33
2018-12-25T07:52:18.097Z,1022.31
2018-12-25T07:53:18.123Z,1022.32
2018-12-25T07:54:18.111Z,1022.41
2018-12-25T07:55:18.088Z,1022.40
2018-12-25T07:56:18.160Z,1022.44
2018-12-25T07:57:18.058Z,1022.42
2018-12-25T07:58:18.033Z,1022.46
2018-12-25T07:59:18.048Z,1022.47
2018-12-25T08:00:19.531Z,1022.53
2018-12-25T08:01:17.999Z,1022.54
2018-12-25T08:02:18.035Z,1022.50
2018-12-25T08:03:17.996Z,1022.55
2018-12-25T08:04:17.972Z,1022.53
2018-12-25T08:05:17.984Z,1022.50
2018-12-25T08:06:18.087Z,1022.57
2018-12-25T08:07:17.953Z,1022.55
2018-12-25T08:08:17.945Z,1022.54
2018-12-25T08:09:17.956Z,1022.56
2018-12-25T08:10:17.987Z,1022.59
2018-12-25T08:11:17.912Z,1022.65
2018-12-25T08:12:17.914Z,1022.64
2018-12-25T08:13:17.912Z,1022.60
2018-12-25T08:14:17.996Z,1022.60
2018-12-25T08:15:17.876Z,1022.60
2018-12-25T08:16:17.842Z,1022.71
2018-12-25T08:17:17.956Z,1022.69
2018-12-25T08:18:17.849Z,1022.67
2018-12-25T08:19:17.881Z,1022.59
2018-12-25T08:20:17.799Z,1022.63
2018-12-25T08:21:17.825Z,1022.66
2018-12-25T08:22:17.830Z,1022.72
2018-12-25T08:23:17.828Z,1022.67
2018-12-25T08:24:17.780Z,1022.73
2018-12-25T08:25:17.831Z,1022.75
2018-12-25T08:26:17.728Z,1022.67
2018-12-25T08:27:17.747Z,1022.60
2018-12-25T08:28:17.758Z,1022.69
2018-12-25T08:29:17.715Z,1022.64
2018-12-25T08:30:17.692Z,1022.58
2018-12-25T08:31:17.699Z,1022.65
2018-12-25T08:32:17.732Z,1022.65
2018-12-25T08:33:17.723Z,1022.67
2018-12-25T08:34:17.692Z,1022.67
2018-12-25T08:35:17.664Z,1022.61
2018-12-25T08:36:17.629Z,1022.63
2018-12-25T08:37:17.669Z,1022.61
2018-12-25T08:38:17.625Z,1022.64
2018-12-25T08:39:17.647Z,1022.64
2018-12-25T08:40:17.593Z,1022.58
2018-12-25T08:41:17.666Z,1022.63
2018-12-25T08:42:17.598Z,1022.59
2018-12-25T08:43:17.571Z,1022.61
2018-12-25T08:44:26.894Z,1022.62
2018-12-25T08:45:17.624Z,1022.62
2018-12-25T08:46:17.642Z,1022.61
2018-12-25T08:47:17.529Z,1022.63
2018-12-25T08:48:17.540Z,1022.58
2018-12-25T08:49:17.485Z,1022.61
2018-12-25T08:51:28.654Z,1022.65
2018-12-25T08:52:28.663Z,1022.53
2018-12-25T08:53:28.661Z,1022.57
2018-12-25T08:54:28.610Z,1022.55
2018-12-25T08:55:28.630Z,1022.57
2018-12-25T08:56:29.494Z,1022.56
2018-12-25T08:57:28.636Z,1022.53
2018-12-25T08:58:28.584Z,1022.57
2018-12-25T08:59:28.579Z,1022.55
2018-12-25T09:00:28.559Z,1022.64
2018-12-25T09:01:28.600Z,1022.64
2018-12-25T09:02:28.595Z,1022.69
2018-12-25T09:03:28.580Z,1022.72
2018-12-25T09:04:28.564Z,1022.73
2018-12-25T09:05:28.579Z,1022.68
2018-12-25T09:06:28.541Z,1022.77
2018-12-25T09:07:28.616Z,1022.70
2018-12-25T09:08:34.684Z,1022.70
2018-12-25T09:09:29.532Z,1022.65
2018-12-25T09:10:28.502Z,1022.70
2018-12-25T09:11:28.486Z,1022.70
2018-12-25T09:12:28.486Z,1022.65
2018-12-25T09:13:28.493Z,1022.61
2018-12-25T09:14:28.509Z,1022.65
2018-12-25T09:15:28.441Z,1022.61
2018-12-25T09:16:33.234Z,1022.65
2018-12-25T09:17:28.398Z,1022.71
2018-12-25T09:18:28.404Z,1022.52
2018-12-25T09:19:29.389Z,1022.70
2018-12-25T09:20:28.430Z,1022.59
2018-12-25T09:21:28.444Z,1022.61
2018-12-25T09:22:28.381Z,1022.65
2018-12-25T09:23:28.338Z,1022.69
2018-12-25T09:24:28.399Z,1022.67
2018-12-25T09:25:28.345Z,1022.68
2018-12-25T09:26:28.315Z,1022.67
2018-12-25T09:27:28.293Z,1022.56
2018-12-25T09:28:28.478Z,1022.65
2018-12-25T09:29:28.288Z,1022.63
2018-12-25T09:30:28.292Z,1022.64
2018-12-25T09:31:28.238Z,1022.66
2018-12-25T09:32:28.281Z,1022.58
2018-12-25T09:33:28.253Z,1022.49
2018-12-25T09:34:28.278Z,1022.52
2018-12-25T09:35:28.238Z,1022.56
2018-12-25T09:36:28.225Z,1022.55
2018-12-25T09:37:28.194Z,1022.45
2018-12-25T09:38:29.020Z,1022.47
2018-12-25T09:39:28.157Z,1022.46
2018-12-25T09:40:28.415Z,1022.50
2018-12-25T09:41:28.172Z,1022.54
2018-12-25T09:42:28.166Z,1022.55
2018-12-25T09:43:28.173Z,1022.48
2018-12-25T09:44:28.143Z,1022.54
2018-12-25T09:45:28.127Z,1022.54
2018-12-25T09:46:28.106Z,1022.56
2018-12-25T09:47:28.323Z,1022.47
2018-12-25T09:48:28.198Z,1022.46
2018-12-25T09:49:28.188Z,1022.46
2018-12-25T09:50:28.057Z,1022.46
2018-12-25T09:51:28.070Z,1022.49
2018-12-25T09:52:28.889Z,1022.51
2018-12-25T09:53:28.096Z,1022.52
2018-12-25T09:54:28.076Z,1022.52
2018-12-25T09:55:28.037Z,1022.55
2018-12-25T09:56:28.980Z,1022.50
2018-12-25T09:57:28.510Z,1022.51
2018-12-25T09:58:28.005Z,1022.52
2018-12-25T09:59:27.949Z,1022.50
2018-12-25T10:00:28.086Z,1022.45
2018-12-25T10:01:27.930Z,1022.54
2018-12-25T10:02:27.966Z,1022.50
2018-12-25T10:03:27.994Z,1022.52
2018-12-25T10:04:27.949Z,1022.48
2018-12-25T10:05:28.589Z,1022.48
2018-12-25T10:06:28.515Z,1022.50
2018-12-25T10:07:27.920Z,1022.53
2018-12-25T10:08:27.842Z,1022.54
2018-12-25T10:09:27.857Z,1022.61
2018-12-25T10:10:27.842Z,1022.58
2018-12-25T10:11:27.964Z,1022.61
2018-12-25T10:12:27.957Z,1022.57
2018-12-25T10:13:27.790Z,1022.60
2018-12-25T10:14:27.825Z,1022.50
2018-12-25T10:15:27.788Z,1022.56
2018-12-25T10:16:28.471Z,1022.58
2018-12-25T10:17:28.510Z,1022.55
2018-12-25T10:18:27.747Z,1022.59
2018-12-25T10:19:27.823Z,1022.56
2018-12-25T10:20:28.308Z,1022.54
2018-12-25T10:21:27.739Z,1022.48
2018-12-25T10:22:27.755Z,1022.47
2018-12-25T10:23:27.678Z,1022.47
2018-12-25T10:24:27.770Z,1022.47
2018-12-25T10:25:27.715Z,1022.44
2018-12-25T10:26:27.664Z,1022.42
2018-12-25T10:27:27.660Z,1022.39
2018-12-25T10:28:27.925Z,1022.49
2018-12-25T10:29:27.862Z,1022.40
2018-12-25T10:30:27.756Z,1022.49
2018-12-25T10:31:28.393Z,1022.48
2018-12-25T10:32:27.606Z,1022.48
2018-12-25T10:33:27.670Z,1022.42
2018-12-25T10:34:27.618Z,1022.44
2018-12-25T10:35:27.573Z,1022.52
2018-12-25T10:36:27.596Z,1022.51
2018-12-25T10:37:27.609Z,1022.49
2018-12-25T10:38:27.686Z,1022.49
2018-12-25T10:39:28.399Z,1022.49
2018-12-25T10:40:27.522Z,1022.48
2018-12-25T10:41:27.538Z,1022.49
2018-12-25T10:42:28.425Z,1022.51
2018-12-25T10:43:28.646Z,1022.54
2018-12-25T10:44:29.124Z,1022.49
2018-12-25T10:45:27.459Z,1022.48
2018-12-25T10:46:27.452Z,1022.47
2018-12-25T10:47:27.432Z,1022.51
2018-12-25T10:48:28.028Z,1022.52
2018-12-25T10:49:27.426Z,1022.46
2018-12-25T10:50:27.454Z,1022.48
2018-12-25T10:51:27.395Z,1022.54
2018-12-25T10:52:27.407Z,1022.49
2018-12-25T10:53:27.359Z,1022.40
2018-12-25T10:54:27.407Z,1022.38
2018-12-25T10:55:29.968Z,1022.49
2018-12-25T10:56:27.894Z,1022.46
2018-12-25T10:57:29.089Z,1022.47
2018-12-25T10:58:27.331Z,1022.47
2018-12-25T10:59:27.397Z,1022.46
2018-12-25T11:00:27.372Z,1022.41
2018-12-25T11:01:27.269Z,1022.50
2018-12-25T11:02:27.729Z,1022.34
2018-12-25T11:03:28.019Z,1022.47
2018-12-25T11:04:27.271Z,1022.44
2018-12-25T11:05:27.269Z,1022.38
2018-12-25T11:06:27.298Z,1022.43
2018-12-25T11:07:27.222Z,1022.38
2018-12-25T11:08:29.029Z,1022.50
2018-12-25T11:09:28.041Z,1022.36
2018-12-25T11:10:28.049Z,1022.37
2018-12-25T11:11:27.253Z,1022.29
2018-12-25T11:12:27.223Z,1022.39
2018-12-25T11:13:27.148Z,1022.44
2018-12-25T11:14:27.164Z,1022.44
2018-12-25T11:15:27.137Z,1022.46
2018-12-25T11:16:27.141Z,1022.41
2018-12-25T11:17:27.183Z,1022.38
2018-12-25T11:18:27.100Z,1022.36
2018-12-25T11:19:27.096Z,1022.32
2018-12-25T11:20:29.077Z,1022.34
2018-12-25T11:21:27.112Z,1022.36
2018-12-25T11:22:27.128Z,1022.38
2018-12-25T11:23:27.058Z,1022.36
2018-12-25T11:24:27.060Z,1022.35
2018-12-25T11:25:28.007Z,1022.36
2018-12-25T11:26:27.036Z,1022.42
2018-12-25T11:27:27.040Z,1022.37
2018-12-25T11:28:27.047Z,1022.42
2018-12-25T11:29:27.045Z,1022.39
2018-12-25T11:30:27.028Z,1022.33
2018-12-25T11:31:26.970Z,1022.37
2018-12-25T11:32:26.991Z,1022.41
2018-12-25T11:33:27.021Z,1022.38
2018-12-25T11:34:26.974Z,1022.36
2018-12-25T11:35:26.946Z,1022.34
2018-12-25T11:36:26.921Z,1022.38
2018-12-25T11:37:26.961Z,1022.39
2018-12-25T11:38:26.929Z,1022.42
2018-12-25T11:39:26.920Z,1022.35
2018-12-25T11:40:26.885Z,1022.34
2018-12-25T11:41:26.864Z,1022.38
2018-12-25T11:42:26.895Z,1022.30
2018-12-25T11:43:26.846Z,1022.32
2018-12-25T11:44:26.852Z,1022.33
2018-12-25T11:45:26.840Z,1022.38
2018-12-25T11:46:26.845Z,1022.35
2018-12-25T11:47:26.836Z,1022.38
2018-12-25T11:48:26.829Z,1022.36
2018-12-25T11:49:26.777Z,1022.42
2018-12-25T11:50:26.789Z,1022.38
2018-12-25T11:51:26.790Z,1022.41
2018-12-25T11:52:28.466Z,1022.35
2018-12-25T11:53:26.756Z,1022.36
2018-12-25T11:54:26.723Z,1022.32
2018-12-25T11:55:26.727Z,1022.41
2018-12-25T11:56:41.485Z,1022.30
2018-12-25T11:57:26.794Z,1022.26
2018-12-25T11:58:26.711Z,1022.28
2018-12-25T11:59:27.501Z,1022.31
2018-12-25T12:00:27.502Z,1022.32
2018-12-25T12:01:26.779Z,1022.25
2018-12-25T12:02:27.117Z,1022.33
2018-12-25T12:03:26.662Z,1022.32
2018-12-25T12:04:26.625Z,1022.37
2018-12-25T12:05:26.638Z,1022.34
2018-12-25T12:06:26.621Z,1022.40
2018-12-25T12:07:26.640Z,1022.30
2018-12-25T12:08:26.612Z,1022.33
2018-12-25T12:09:28.944Z,1022.28